sensor_id;sensor_type;location;lat;lon;timestamp;temperature;humidity
1988;DHT22;12775;46.994;15.498;2023-12-14T00:00:30;6.60;99.90
1988;DHT22;12775;46.994;15.498;2023-12-14T00:02:57;6.60;99.90
1988;DHT22;12775;46.994;15.498;2023-12-14T00:05:24;6.60;99.90
1988;DHT22;12775;46.994;15.498;2023-12-14T00:07:51;6.60;99.90
1988;DHT22;12775;46.994;15.498;2023-12-14T00:10:19;6.60;99.90
1988;DHT22;12775;46.994;15.498;2023-12-14T00:12:46;6.60;99.90
1988;DHT22;12775;46.994;15.498;2023-12-14T00:15:13;6.50;99.90
1988;DHT22;12775;46.994;15.498;2023-12-14T00:17:39;6.60;99.90
1988;DHT22;12775;46.994;15.498;2023-12-14T00:20:07;6.50;99.90
1988;DHT22;12775;46.994;15.498;2023-12-14T00:22:35;6.50;99.90
1988;DHT22;12775;46.994;15.498;2023-12-14T00:25:03;6.50;99.90
1988;DHT22;12775;46.994;15.498;2023-12-14T00:27:29;6.50;99.90
1988;DHT22;12775;46.994;15.498;2023-12-14T00:29:56;6.60;99.90
1988;DHT22;12775;46.994;15.498;2023-12-14T00:32:23;6.60;99.90
1988;DHT22;12775;46.994;15.498;2023-12-14T00:34:50;6.60;99.90
1988;DHT22;12775;46.994;15.498;2023-12-14T00:37:17;6.60;99.90
1988;DHT22;12775;46.994;15.498;2023-12-14T00:39:45;6.60;99.90
1988;DHT22;12775;46.994;15.498;2023-12-14T00:42:13;6.60;99.90
1988;DHT22;12775;46.994;15.498;2023-12-14T00:44:40;6.60;99.90
1988;DHT22;12775;46.994;15.498;2023-12-14T00:47:08;6.60;99.90
1988;DHT22;12775;46.994;15.498;2023-12-14T00:49:35;6.60;99.90
1988;DHT22;12775;46.994;15.498;2023-12-14T00:52:03;6.50;99.90
1988;DHT22;12775;46.994;15.498;2023-12-14T00:54:30;6.50;99.90
1988;DHT22;12775;46.994;15.498;2023-12-14T00:56:57;6.50;99.90
1988;DHT22;12775;46.994;15.498;2023-12-14T00:59:25;6.50;99.90
1988;DHT22;12775;46.994;15.498;2023-12-14T01:01:52;6.50;99.90
1988;DHT22;12775;46.994;15.498;2023-12-14T01:04:19;6.50;99.90
1988;DHT22;12775;46.994;15.498;2023-12-14T01:06:47;6.50;99.90
1988;DHT22;12775;46.994;15.498;2023-12-14T01:09:13;6.50;99.90
1988;DHT22;12775;46.994;15.498;2023-12-14T01:11:40;6.50;99.90
1988;DHT22;12775;46.994;15.498;2023-12-14T01:14:07;6.60;99.90
1988;DHT22;12775;46.994;15.498;2023-12-14T01:16:33;6.60;99.90
1988;DHT22;12775;46.994;15.498;2023-12-14T01:19:01;6.60;99.90
1988;DHT22;12775;46.994;15.498;2023-12-14T01:21:30;6.60;99.90
1988;DHT22;12775;46.994;15.498;2023-12-14T01:23:57;6.70;99.90
1988;DHT22;12775;46.994;15.498;2023-12-14T01:26:24;6.70;99.90
1988;DHT22;12775;46.994;15.498;2023-12-14T01:28:53;6.60;99.90
1988;DHT22;12775;46.994;15.498;2023-12-14T01:31:20;6.60;99.90
1988;DHT22;12775;46.994;15.498;2023-12-14T01:33:49;6.60;99.90
1988;DHT22;12775;46.994;15.498;2023-12-14T01:36:21;6.60;99.90
1988;DHT22;12775;46.994;15.498;2023-12-14T01:38:49;6.60;99.90
1988;DHT22;12775;46.994;15.498;2023-12-14T01:41:16;6.60;99.90
1988;DHT22;12775;46.994;15.498;2023-12-14T01:43:43;6.60;99.90
1988;DHT22;12775;46.994;15.498;2023-12-14T01:46:11;6.60;99.90
1988;DHT22;12775;46.994;15.498;2023-12-14T01:48:38;6.60;99.90
1988;DHT22;12775;46.994;15.498;2023-12-14T01:51:05;6.50;99.90
1988;DHT22;12775;46.994;15.498;2023-12-14T01:53:33;6.50;99.90
1988;DHT22;12775;46.994;15.498;2023-12-14T01:56:00;6.60;99.90
1988;DHT22;12775;46.994;15.498;2023-12-14T01:58:29;6.50;99.90
1988;DHT22;12775;46.994;15.498;2023-12-14T02:01:03;6.50;99.90
1988;DHT22;12775;46.994;15.498;2023-12-14T02:03:27;6.60;99.90
1988;DHT22;12775;46.994;15.498;2023-12-14T02:05:54;6.50;99.90
1988;DHT22;12775;46.994;15.498;2023-12-14T02:08:22;6.40;99.90
1988;DHT22;12775;46.994;15.498;2023-12-14T02:10:50;6.40;99.90
1988;DHT22;12775;46.994;15.498;2023-12-14T02:13:17;6.30;99.90
1988;DHT22;12775;46.994;15.498;2023-12-14T02:15:46;6.30;99.90
1988;DHT22;12775;46.994;15.498;2023-12-14T02:18:13;6.30;99.90
1988;DHT22;12775;46.994;15.498;2023-12-14T02:20:40;6.20;99.90
1988;DHT22;12775;46.994;15.498;2023-12-14T02:23:08;6.30;99.90
1988;DHT22;12775;46.994;15.498;2023-12-14T02:25:35;6.30;99.90
1988;DHT22;12775;46.994;15.498;2023-12-14T02:28:03;6.30;99.90
1988;DHT22;12775;46.994;15.498;2023-12-14T02:30:29;6.30;99.90
1988;DHT22;12775;46.994;15.498;2023-12-14T02:32:57;6.30;99.90
1988;DHT22;12775;46.994;15.498;2023-12-14T02:35:24;6.30;99.90
1988;DHT22;12775;46.994;15.498;2023-12-14T02:37:51;6.30;99.90
1988;DHT22;12775;46.994;15.498;2023-12-14T02:40:18;6.30;99.90
1988;DHT22;12775;46.994;15.498;2023-12-14T02:42:45;6.20;99.90
1988;DHT22;12775;46.994;15.498;2023-12-14T02:45:13;6.20;99.90
1988;DHT22;12775;46.994;15.498;2023-12-14T02:47:40;6.20;99.90
1988;DHT22;12775;46.994;15.498;2023-12-14T02:50:08;6.10;99.90
1988;DHT22;12775;46.994;15.498;2023-12-14T02:52:35;6.10;99.90
1988;DHT22;12775;46.994;15.498;2023-12-14T02:55:01;6.20;99.90
1988;DHT22;12775;46.994;15.498;2023-12-14T02:57:29;6.20;99.90
1988;DHT22;12775;46.994;15.498;2023-12-14T02:59:56;6.20;99.90
1988;DHT22;12775;46.994;15.498;2023-12-14T03:02:24;6.20;99.90
1988;DHT22;12775;46.994;15.498;2023-12-14T03:04:53;6.30;99.90
1988;DHT22;12775;46.994;15.498;2023-12-14T03:07:20;6.30;99.90
1988;DHT22;12775;46.994;15.498;2023-12-14T03:09:47;6.30;99.90
1988;DHT22;12775;46.994;15.498;2023-12-14T03:12:15;6.30;99.90
1988;DHT22;12775;46.994;15.498;2023-12-14T03:14:42;6.30;99.90
1988;DHT22;12775;46.994;15.498;2023-12-14T03:17:09;6.30;99.90
1988;DHT22;12775;46.994;15.498;2023-12-14T03:19:38;6.20;99.90
1988;DHT22;12775;46.994;15.498;2023-12-14T03:22:05;6.10;99.90
1988;DHT22;12775;46.994;15.498;2023-12-14T03:24:32;6.00;99.90
1988;DHT22;12775;46.994;15.498;2023-12-14T03:26:59;6.00;99.90
1988;DHT22;12775;46.994;15.498;2023-12-14T03:29:27;6.00;99.90
1988;DHT22;12775;46.994;15.498;2023-12-14T03:31:55;6.00;99.90
1988;DHT22;12775;46.994;15.498;2023-12-14T03:34:23;6.00;99.90
1988;DHT22;12775;46.994;15.498;2023-12-14T03:36:49;6.00;99.90
1988;DHT22;12775;46.994;15.498;2023-12-14T03:39:17;6.10;99.90
1988;DHT22;12775;46.994;15.498;2023-12-14T03:41:44;6.10;99.90
1988;DHT22;12775;46.994;15.498;2023-12-14T03:44:11;6.10;99.90
1988;DHT22;12775;46.994;15.498;2023-12-14T03:46:37;6.10;99.90
1988;DHT22;12775;46.994;15.498;2023-12-14T03:49:04;6.10;99.90
1988;DHT22;12775;46.994;15.498;2023-12-14T03:51:31;6.20;99.90
1988;DHT22;12775;46.994;15.498;2023-12-14T03:53:59;6.20;99.90
1988;DHT22;12775;46.994;15.498;2023-12-14T03:56:26;6.20;99.90
1988;DHT22;12775;46.994;15.498;2023-12-14T03:58:53;6.30;99.90
1988;DHT22;12775;46.994;15.498;2023-12-14T04:01:21;6.30;99.90
1988;DHT22;12775;46.994;15.498;2023-12-14T04:03:48;6.30;99.90
1988;DHT22;12775;46.994;15.498;2023-12-14T04:06:15;6.40;99.90
1988;DHT22;12775;46.994;15.498;2023-12-14T04:08:43;6.40;99.90
1988;DHT22;12775;46.994;15.498;2023-12-14T04:11:10;6.40;99.90
1988;DHT22;12775;46.994;15.498;2023-12-14T04:13:38;6.40;99.90
1988;DHT22;12775;46.994;15.498;2023-12-14T04:16:06;6.40;99.90
1988;DHT22;12775;46.994;15.498;2023-12-14T04:18:34;6.40;99.90
1988;DHT22;12775;46.994;15.498;2023-12-14T04:21:00;6.50;99.90
1988;DHT22;12775;46.994;15.498;2023-12-14T04:23:27;6.50;99.90
1988;DHT22;12775;46.994;15.498;2023-12-14T04:25:55;6.50;99.90
1988;DHT22;12775;46.994;15.498;2023-12-14T04:28:22;6.60;99.90
1988;DHT22;12775;46.994;15.498;2023-12-14T04:30:49;6.50;99.90
1988;DHT22;12775;46.994;15.498;2023-12-14T04:33:17;6.50;99.90
1988;DHT22;12775;46.994;15.498;2023-12-14T04:35:44;6.60;99.90
1988;DHT22;12775;46.994;15.498;2023-12-14T04:38:12;6.60;99.90
1988;DHT22;12775;46.994;15.498;2023-12-14T04:40:40;6.60;99.90
1988;DHT22;12775;46.994;15.498;2023-12-14T04:43:07;6.60;99.90
1988;DHT22;12775;46.994;15.498;2023-12-14T04:45:35;6.60;99.90
1988;DHT22;12775;46.994;15.498;2023-12-14T04:48:02;6.60;99.90
1988;DHT22;12775;46.994;15.498;2023-12-14T04:50:29;6.60;99.90
1988;DHT22;12775;46.994;15.498;2023-12-14T04:52:57;6.60;99.90
1988;DHT22;12775;46.994;15.498;2023-12-14T04:55:24;6.70;99.90
1988;DHT22;12775;46.994;15.498;2023-12-14T04:57:52;6.70;99.90
1988;DHT22;12775;46.994;15.498;2023-12-14T05:00:20;6.70;99.90
1988;DHT22;12775;46.994;15.498;2023-12-14T05:02:47;6.70;99.90
1988;DHT22;12775;46.994;15.498;2023-12-14T05:05:14;6.70;99.90
1988;DHT22;12775;46.994;15.498;2023-12-14T05:07:41;6.60;99.90
1988;DHT22;12775;46.994;15.498;2023-12-14T05:10:07;6.60;99.90
1988;DHT22;12775;46.994;15.498;2023-12-14T05:12:35;6.60;99.90
1988;DHT22;12775;46.994;15.498;2023-12-14T05:15:04;6.60;99.90
1988;DHT22;12775;46.994;15.498;2023-12-14T05:17:30;6.50;99.90
1988;DHT22;12775;46.994;15.498;2023-12-14T05:19:57;6.50;99.90
1988;DHT22;12775;46.994;15.498;2023-12-14T05:22:23;6.60;99.90
1988;DHT22;12775;46.994;15.498;2023-12-14T05:24:51;6.50;99.90
1988;DHT22;12775;46.994;15.498;2023-12-14T05:27:17;6.50;99.90
1988;DHT22;12775;46.994;15.498;2023-12-14T05:29:44;6.60;99.90
1988;DHT22;12775;46.994;15.498;2023-12-14T05:32:10;6.50;99.90
1988;DHT22;12775;46.994;15.498;2023-12-14T05:34:38;6.50;99.90
1988;DHT22;12775;46.994;15.498;2023-12-14T05:37:05;6.50;99.90
1988;DHT22;12775;46.994;15.498;2023-12-14T05:39:32;6.50;99.90
1988;DHT22;12775;46.994;15.498;2023-12-14T05:42:01;6.50;99.90
1988;DHT22;12775;46.994;15.498;2023-12-14T05:44:28;6.50;99.90
1988;DHT22;12775;46.994;15.498;2023-12-14T05:46:56;6.50;99.90
1988;DHT22;12775;46.994;15.498;2023-12-14T05:49:24;6.50;99.90
1988;DHT22;12775;46.994;15.498;2023-12-14T05:51:51;6.50;99.90
1988;DHT22;12775;46.994;15.498;2023-12-14T05:54:19;6.50;99.90
1988;DHT22;12775;46.994;15.498;2023-12-14T05:56:45;6.50;99.90
1988;DHT22;12775;46.994;15.498;2023-12-14T05:59:12;6.50;99.90
1988;DHT22;12775;46.994;15.498;2023-12-14T06:01:38;6.50;99.90
1988;DHT22;12775;46.994;15.498;2023-12-14T06:04:05;6.50;99.90
1988;DHT22;12775;46.994;15.498;2023-12-14T06:06:32;6.50;99.90
1988;DHT22;12775;46.994;15.498;2023-12-14T06:08:58;6.50;99.90
1988;DHT22;12775;46.994;15.498;2023-12-14T06:11:25;6.50;99.90
1988;DHT22;12775;46.994;15.498;2023-12-14T06:13:51;6.50;99.90
1988;DHT22;12775;46.994;15.498;2023-12-14T06:16:18;6.50;99.90
1988;DHT22;12775;46.994;15.498;2023-12-14T06:18:45;6.50;99.90
1988;DHT22;12775;46.994;15.498;2023-12-14T06:21:11;6.50;99.90
1988;DHT22;12775;46.994;15.498;2023-12-14T06:23:38;6.40;99.90
1988;DHT22;12775;46.994;15.498;2023-12-14T06:26:05;6.40;99.90
1988;DHT22;12775;46.994;15.498;2023-12-14T06:28:31;6.40;99.90
1988;DHT22;12775;46.994;15.498;2023-12-14T06:30:58;6.40;99.90
1988;DHT22;12775;46.994;15.498;2023-12-14T06:33:25;6.40;99.90
1988;DHT22;12775;46.994;15.498;2023-12-14T06:35:52;6.40;99.90
1988;DHT22;12775;46.994;15.498;2023-12-14T06:38:20;6.40;99.90
1988;DHT22;12775;46.994;15.498;2023-12-14T06:40:47;6.40;99.90
1988;DHT22;12775;46.994;15.498;2023-12-14T06:43:16;6.40;99.90
1988;DHT22;12775;46.994;15.498;2023-12-14T06:45:43;6.40;99.90
1988;DHT22;12775;46.994;15.498;2023-12-14T06:48:10;6.30;99.90
1988;DHT22;12775;46.994;15.498;2023-12-14T06:50:38;6.30;99.90
1988;DHT22;12775;46.994;15.498;2023-12-14T06:53:05;6.30;99.90
1988;DHT22;12775;46.994;15.498;2023-12-14T06:55:33;6.30;99.90
1988;DHT22;12775;46.994;15.498;2023-12-14T06:58:01;6.20;99.90
1988;DHT22;12775;46.994;15.498;2023-12-14T07:00:28;6.20;99.90
1988;DHT22;12775;46.994;15.498;2023-12-14T07:02:56;6.20;99.90
1988;DHT22;12775;46.994;15.498;2023-12-14T07:05:23;6.20;99.90
1988;DHT22;12775;46.994;15.498;2023-12-14T07:07:50;6.20;99.90
1988;DHT22;12775;46.994;15.498;2023-12-14T07:10:17;6.20;99.90
1988;DHT22;12775;46.994;15.498;2023-12-14T07:12:44;6.20;99.90
1988;DHT22;12775;46.994;15.498;2023-12-14T07:15:11;6.20;99.90
1988;DHT22;12775;46.994;15.498;2023-12-14T07:17:37;6.20;99.90
1988;DHT22;12775;46.994;15.498;2023-12-14T07:20:05;6.20;99.90
1988;DHT22;12775;46.994;15.498;2023-12-14T07:22:32;6.20;99.90
1988;DHT22;12775;46.994;15.498;2023-12-14T07:24:59;6.10;99.90
1988;DHT22;12775;46.994;15.498;2023-12-14T07:27:25;6.10;99.90
1988;DHT22;12775;46.994;15.498;2023-12-14T07:29:53;6.10;99.90
1988;DHT22;12775;46.994;15.498;2023-12-14T07:32:21;6.10;99.90
1988;DHT22;12775;46.994;15.498;2023-12-14T07:34:48;6.10;99.90
1988;DHT22;12775;46.994;15.498;2023-12-14T07:37:16;6.20;99.90
1988;DHT22;12775;46.994;15.498;2023-12-14T07:39:45;6.10;99.90
1988;DHT22;12775;46.994;15.498;2023-12-14T07:42:12;6.10;99.90
1988;DHT22;12775;46.994;15.498;2023-12-14T07:44:41;6.10;99.90
1988;DHT22;12775;46.994;15.498;2023-12-14T07:47:08;6.20;99.90
1988;DHT22;12775;46.994;15.498;2023-12-14T07:49:36;6.20;99.90
1988;DHT22;12775;46.994;15.498;2023-12-14T07:52:05;6.20;99.90
1988;DHT22;12775;46.994;15.498;2023-12-14T07:54:33;6.20;99.90
1988;DHT22;12775;46.994;15.498;2023-12-14T07:57:00;6.20;99.90
1988;DHT22;12775;46.994;15.498;2023-12-14T07:59:27;6.30;99.90
1988;DHT22;12775;46.994;15.498;2023-12-14T08:01:54;6.20;99.90
1988;DHT22;12775;46.994;15.498;2023-12-14T08:04:21;6.30;99.90
1988;DHT22;12775;46.994;15.498;2023-12-14T08:06:48;6.30;99.90
1988;DHT22;12775;46.994;15.498;2023-12-14T08:09:15;6.30;99.90
1988;DHT22;12775;46.994;15.498;2023-12-14T08:11:43;6.30;99.90
1988;DHT22;12775;46.994;15.498;2023-12-14T08:14:10;6.30;99.90
1988;DHT22;12775;46.994;15.498;2023-12-14T08:16:37;6.30;99.90
1988;DHT22;12775;46.994;15.498;2023-12-14T08:19:04;6.40;99.90
1988;DHT22;12775;46.994;15.498;2023-12-14T08:21:31;6.40;99.90
1988;DHT22;12775;46.994;15.498;2023-12-14T08:23:59;6.40;99.90
1988;DHT22;12775;46.994;15.498;2023-12-14T08:26:26;6.50;99.90
1988;DHT22;12775;46.994;15.498;2023-12-14T08:28:53;6.50;99.90
1988;DHT22;12775;46.994;15.498;2023-12-14T08:31:21;6.50;99.90
1988;DHT22;12775;46.994;15.498;2023-12-14T08:33:48;6.50;99.90
1988;DHT22;12775;46.994;15.498;2023-12-14T08:36:16;6.50;99.90
1988;DHT22;12775;46.994;15.498;2023-12-14T08:38:43;6.60;99.90
1988;DHT22;12775;46.994;15.498;2023-12-14T08:41:13;6.50;99.90
1988;DHT22;12775;46.994;15.498;2023-12-14T08:43:40;6.50;99.90
1988;DHT22;12775;46.994;15.498;2023-12-14T08:46:08;6.50;99.90
1988;DHT22;12775;46.994;15.498;2023-12-14T08:48:35;6.30;99.90
1988;DHT22;12775;46.994;15.498;2023-12-14T08:51:03;6.20;99.90
1988;DHT22;12775;46.994;15.498;2023-12-14T08:53:29;6.20;99.90
1988;DHT22;12775;46.994;15.498;2023-12-14T08:55:57;6.30;99.90
1988;DHT22;12775;46.994;15.498;2023-12-14T08:58:23;6.40;99.90
1988;DHT22;12775;46.994;15.498;2023-12-14T09:00:51;6.50;99.90
1988;DHT22;12775;46.994;15.498;2023-12-14T09:03:18;6.50;99.90
1988;DHT22;12775;46.994;15.498;2023-12-14T09:05:44;6.70;99.90
1988;DHT22;12775;46.994;15.498;2023-12-14T09:08:11;6.70;99.90
1988;DHT22;12775;46.994;15.498;2023-12-14T09:10:39;6.80;99.90
1988;DHT22;12775;46.994;15.498;2023-12-14T09:13:07;6.90;99.90
1988;DHT22;12775;46.994;15.498;2023-12-14T09:15:36;7.00;99.90
1988;DHT22;12775;46.994;15.498;2023-12-14T09:18:02;7.00;99.90
1988;DHT22;12775;46.994;15.498;2023-12-14T09:20:30;7.10;99.90
1988;DHT22;12775;46.994;15.498;2023-12-14T09:22:57;7.00;99.90
1988;DHT22;12775;46.994;15.498;2023-12-14T09:25:24;7.10;99.90
1988;DHT22;12775;46.994;15.498;2023-12-14T09:27:52;7.00;99.90
1988;DHT22;12775;46.994;15.498;2023-12-14T09:30:18;7.00;99.90
1988;DHT22;12775;46.994;15.498;2023-12-14T09:32:46;7.10;99.90
1988;DHT22;12775;46.994;15.498;2023-12-14T09:35:13;7.20;99.90
1988;DHT22;12775;46.994;15.498;2023-12-14T09:37:40;7.30;99.90
1988;DHT22;12775;46.994;15.498;2023-12-14T09:40:08;7.30;99.90
1988;DHT22;12775;46.994;15.498;2023-12-14T09:42:37;7.30;99.90
1988;DHT22;12775;46.994;15.498;2023-12-14T09:45:06;7.30;99.90
1988;DHT22;12775;46.994;15.498;2023-12-14T09:47:32;7.20;99.90
1988;DHT22;12775;46.994;15.498;2023-12-14T09:50:00;7.30;99.90
1988;DHT22;12775;46.994;15.498;2023-12-14T09:52:27;7.30;99.90
1988;DHT22;12775;46.994;15.498;2023-12-14T09:54:56;7.10;99.90
1988;DHT22;12775;46.994;15.498;2023-12-14T09:57:23;7.20;99.90
1988;DHT22;12775;46.994;15.498;2023-12-14T09:59:51;7.20;99.90
1988;DHT22;12775;46.994;15.498;2023-12-14T10:02:18;7.30;99.90
1988;DHT22;12775;46.994;15.498;2023-12-14T10:04:46;7.40;99.90
1988;DHT22;12775;46.994;15.498;2023-12-14T10:07:13;7.50;99.90
1988;DHT22;12775;46.994;15.498;2023-12-14T10:09:40;7.50;99.90
1988;DHT22;12775;46.994;15.498;2023-12-14T10:12:08;7.70;99.90
1988;DHT22;12775;46.994;15.498;2023-12-14T10:14:35;7.80;99.90
1988;DHT22;12775;46.994;15.498;2023-12-14T10:17:14;7.80;99.90
1988;DHT22;12775;46.994;15.498;2023-12-14T10:19:42;7.90;99.90
1988;DHT22;12775;46.994;15.498;2023-12-14T10:22:06;7.90;99.90
1988;DHT22;12775;46.994;15.498;2023-12-14T10:24:34;8.00;99.90
1988;DHT22;12775;46.994;15.498;2023-12-14T10:27:04;7.90;99.90
1988;DHT22;12775;46.994;15.498;2023-12-14T10:29:27;7.90;99.90
1988;DHT22;12775;46.994;15.498;2023-12-14T10:31:54;8.00;99.90
1988;DHT22;12775;46.994;15.498;2023-12-14T10:34:21;8.00;99.90
1988;DHT22;12775;46.994;15.498;2023-12-14T10:36:48;8.00;99.90
1988;DHT22;12775;46.994;15.498;2023-12-14T10:39:15;8.20;99.90
1988;DHT22;12775;46.994;15.498;2023-12-14T10:41:44;8.30;99.90
1988;DHT22;12775;46.994;15.498;2023-12-14T10:44:09;8.30;99.90
1988;DHT22;12775;46.994;15.498;2023-12-14T10:46:36;8.40;99.90
1988;DHT22;12775;46.994;15.498;2023-12-14T10:49:02;8.50;99.90
1988;DHT22;12775;46.994;15.498;2023-12-14T10:51:29;8.70;99.90
1988;DHT22;12775;46.994;15.498;2023-12-14T10:53:57;8.80;99.90
1988;DHT22;12775;46.994;15.498;2023-12-14T10:56:24;8.90;99.90
1988;DHT22;12775;46.994;15.498;2023-12-14T10:58:52;9.00;99.90
1988;DHT22;12775;46.994;15.498;2023-12-14T11:01:21;9.10;99.90
1988;DHT22;12775;46.994;15.498;2023-12-14T11:03:47;9.10;99.90
1988;DHT22;12775;46.994;15.498;2023-12-14T11:06:21;9.10;99.90
1988;DHT22;12775;46.994;15.498;2023-12-14T11:08:47;9.30;99.90
1988;DHT22;12775;46.994;15.498;2023-12-14T11:11:14;9.50;99.90
1988;DHT22;12775;46.994;15.498;2023-12-14T11:13:42;9.50;99.90
1988;DHT22;12775;46.994;15.498;2023-12-14T11:16:08;9.50;99.90
1988;DHT22;12775;46.994;15.498;2023-12-14T11:18:36;9.70;99.90
1988;DHT22;12775;46.994;15.498;2023-12-14T11:21:03;9.80;99.90
1988;DHT22;12775;46.994;15.498;2023-12-14T11:23:33;9.80;99.90
1988;DHT22;12775;46.994;15.498;2023-12-14T11:26:03;9.90;99.90
1988;DHT22;12775;46.994;15.498;2023-12-14T11:28:31;9.90;99.90
1988;DHT22;12775;46.994;15.498;2023-12-14T11:30:57;9.90;99.90
1988;DHT22;12775;46.994;15.498;2023-12-14T11:33:24;10.10;99.90
1988;DHT22;12775;46.994;15.498;2023-12-14T11:35:51;10.20;99.90
1988;DHT22;12775;46.994;15.498;2023-12-14T11:38:19;10.10;99.90
1988;DHT22;12775;46.994;15.498;2023-12-14T11:40:46;10.20;99.90
1988;DHT22;12775;46.994;15.498;2023-12-14T11:43:13;10.30;99.90
1988;DHT22;12775;46.994;15.498;2023-12-14T11:45:40;10.30;99.90
1988;DHT22;12775;46.994;15.498;2023-12-14T11:48:07;10.30;99.90
1988;DHT22;12775;46.994;15.498;2023-12-14T11:50:34;10.40;99.90
1988;DHT22;12775;46.994;15.498;2023-12-14T11:53:00;10.30;99.90
1988;DHT22;12775;46.994;15.498;2023-12-14T11:55:27;10.40;99.90
1988;DHT22;12775;46.994;15.498;2023-12-14T11:57:55;10.40;99.90
1988;DHT22;12775;46.994;15.498;2023-12-14T12:00:25;10.50;99.90
1988;DHT22;12775;46.994;15.498;2023-12-14T12:02:51;10.50;99.90
1988;DHT22;12775;46.994;15.498;2023-12-14T12:05:19;10.50;99.90
1988;DHT22;12775;46.994;15.498;2023-12-14T12:07:49;10.50;99.90
1988;DHT22;12775;46.994;15.498;2023-12-14T12:10:18;10.50;99.90
1988;DHT22;12775;46.994;15.498;2023-12-14T12:12:45;10.50;99.90
1988;DHT22;12775;46.994;15.498;2023-12-14T12:15:13;10.50;99.90
1988;DHT22;12775;46.994;15.498;2023-12-14T12:17:42;10.50;99.90
1988;DHT22;12775;46.994;15.498;2023-12-14T12:20:12;10.50;99.90
1988;DHT22;12775;46.994;15.498;2023-12-14T12:22:39;10.40;99.90
1988;DHT22;12775;46.994;15.498;2023-12-14T12:25:07;10.40;99.90
1988;DHT22;12775;46.994;15.498;2023-12-14T12:27:35;10.40;99.90
1988;DHT22;12775;46.994;15.498;2023-12-14T12:30:03;10.30;99.90
1988;DHT22;12775;46.994;15.498;2023-12-14T12:32:31;10.30;99.90
1988;DHT22;12775;46.994;15.498;2023-12-14T12:34:58;10.40;99.90
1988;DHT22;12775;46.994;15.498;2023-12-14T12:37:25;10.40;99.90
1988;DHT22;12775;46.994;15.498;2023-12-14T12:39:52;10.40;99.90
1988;DHT22;12775;46.994;15.498;2023-12-14T12:42:19;10.40;99.90
1988;DHT22;12775;46.994;15.498;2023-12-14T12:44:46;10.30;99.90
1988;DHT22;12775;46.994;15.498;2023-12-14T12:47:13;10.30;99.90
1988;DHT22;12775;46.994;15.498;2023-12-14T12:49:41;10.30;99.90
1988;DHT22;12775;46.994;15.498;2023-12-14T12:52:08;10.20;99.90
1988;DHT22;12775;46.994;15.498;2023-12-14T12:54:36;10.20;99.90
1988;DHT22;12775;46.994;15.498;2023-12-14T12:57:03;10.30;99.90
1988;DHT22;12775;46.994;15.498;2023-12-14T12:59:30;10.20;99.90
1988;DHT22;12775;46.994;15.498;2023-12-14T13:01:57;10.20;99.90
1988;DHT22;12775;46.994;15.498;2023-12-14T13:04:24;10.20;99.90
1988;DHT22;12775;46.994;15.498;2023-12-14T13:06:50;10.20;99.90
1988;DHT22;12775;46.994;15.498;2023-12-14T13:09:18;10.10;99.90
1988;DHT22;12775;46.994;15.498;2023-12-14T13:11:46;10.20;99.90
1988;DHT22;12775;46.994;15.498;2023-12-14T13:14:13;10.10;99.90
1988;DHT22;12775;46.994;15.498;2023-12-14T13:16:40;10.10;99.90
1988;DHT22;12775;46.994;15.498;2023-12-14T13:19:08;10.10;99.90
1988;DHT22;12775;46.994;15.498;2023-12-14T13:21:35;10.00;99.90
1988;DHT22;12775;46.994;15.498;2023-12-14T13:24:02;10.00;99.90
1988;DHT22;12775;46.994;15.498;2023-12-14T13:26:29;9.80;99.90
1988;DHT22;12775;46.994;15.498;2023-12-14T13:28:56;9.60;99.90
1988;DHT22;12775;46.994;15.498;2023-12-14T13:31:24;9.60;99.90
1988;DHT22;12775;46.994;15.498;2023-12-14T13:33:52;9.70;99.90
1988;DHT22;12775;46.994;15.498;2023-12-14T13:36:19;9.80;99.90
1988;DHT22;12775;46.994;15.498;2023-12-14T13:38:48;9.80;99.90
1988;DHT22;12775;46.994;15.498;2023-12-14T13:41:15;9.80;99.90
1988;DHT22;12775;46.994;15.498;2023-12-14T13:43:42;9.80;99.90
1988;DHT22;12775;46.994;15.498;2023-12-14T13:46:10;9.80;99.90
1988;DHT22;12775;46.994;15.498;2023-12-14T13:48:37;9.80;99.90
1988;DHT22;12775;46.994;15.498;2023-12-14T13:51:05;9.90;99.90
1988;DHT22;12775;46.994;15.498;2023-12-14T13:53:32;9.80;99.90
1988;DHT22;12775;46.994;15.498;2023-12-14T13:55:59;9.90;99.90
1988;DHT22;12775;46.994;15.498;2023-12-14T13:58:27;9.90;99.90
1988;DHT22;12775;46.994;15.498;2023-12-14T14:00:54;9.90;99.90
1988;DHT22;12775;46.994;15.498;2023-12-14T14:03:21;10.00;99.90
1988;DHT22;12775;46.994;15.498;2023-12-14T14:05:49;10.00;99.90
1988;DHT22;12775;46.994;15.498;2023-12-14T14:08:16;10.00;99.90
1988;DHT22;12775;46.994;15.498;2023-12-14T14:10:44;10.00;99.90
1988;DHT22;12775;46.994;15.498;2023-12-14T14:13:12;10.10;99.90
1988;DHT22;12775;46.994;15.498;2023-12-14T14:15:39;10.10;99.90
1988;DHT22;12775;46.994;15.498;2023-12-14T14:18:07;10.10;99.90
1988;DHT22;12775;46.994;15.498;2023-12-14T14:20:34;10.10;99.90
1988;DHT22;12775;46.994;15.498;2023-12-14T14:23:01;10.10;99.90
1988;DHT22;12775;46.994;15.498;2023-12-14T14:25:29;10.00;99.90
1988;DHT22;12775;46.994;15.498;2023-12-14T14:27:56;10.00;99.90
1988;DHT22;12775;46.994;15.498;2023-12-14T14:30:24;9.90;99.90
1988;DHT22;12775;46.994;15.498;2023-12-14T14:32:51;9.90;99.90
1988;DHT22;12775;46.994;15.498;2023-12-14T14:35:18;9.80;99.90
1988;DHT22;12775;46.994;15.498;2023-12-14T14:37:46;9.80;99.90
1988;DHT22;12775;46.994;15.498;2023-12-14T14:40:14;9.80;99.90
1988;DHT22;12775;46.994;15.498;2023-12-14T14:42:42;9.80;99.90
1988;DHT22;12775;46.994;15.498;2023-12-14T14:45:10;9.70;99.90
1988;DHT22;12775;46.994;15.498;2023-12-14T14:47:36;9.70;99.90
1988;DHT22;12775;46.994;15.498;2023-12-14T14:50:03;9.70;99.90
1988;DHT22;12775;46.994;15.498;2023-12-14T14:52:32;9.40;99.90
1988;DHT22;12775;46.994;15.498;2023-12-14T14:54:59;9.20;99.90
1988;DHT22;12775;46.994;15.498;2023-12-14T14:57:26;9.30;99.90
1988;DHT22;12775;46.994;15.498;2023-12-14T14:59:54;9.20;99.90
1988;DHT22;12775;46.994;15.498;2023-12-14T15:02:21;9.10;99.90
1988;DHT22;12775;46.994;15.498;2023-12-14T15:04:50;8.90;99.90
1988;DHT22;12775;46.994;15.498;2023-12-14T15:07:17;8.90;99.90
1988;DHT22;12775;46.994;15.498;2023-12-14T15:09:44;8.90;99.90
1988;DHT22;12775;46.994;15.498;2023-12-14T15:12:14;8.90;99.90
1988;DHT22;12775;46.994;15.498;2023-12-14T15:14:41;8.90;99.90
1988;DHT22;12775;46.994;15.498;2023-12-14T15:17:08;8.90;99.90
1988;DHT22;12775;46.994;15.498;2023-12-14T15:19:36;8.90;99.90
1988;DHT22;12775;46.994;15.498;2023-12-14T15:22:03;8.90;99.90
1988;DHT22;12775;46.994;15.498;2023-12-14T15:24:30;8.80;99.90
1988;DHT22;12775;46.994;15.498;2023-12-14T15:26:58;8.90;99.90
1988;DHT22;12775;46.994;15.498;2023-12-14T15:29:26;8.90;99.90
1988;DHT22;12775;46.994;15.498;2023-12-14T15:31:53;8.80;99.90
1988;DHT22;12775;46.994;15.498;2023-12-14T15:34:21;8.90;99.90
1988;DHT22;12775;46.994;15.498;2023-12-14T15:36:48;8.80;99.90
1988;DHT22;12775;46.994;15.498;2023-12-14T15:39:15;8.80;99.90
1988;DHT22;12775;46.994;15.498;2023-12-14T15:41:43;8.80;99.90
1988;DHT22;12775;46.994;15.498;2023-12-14T15:44:10;8.80;99.90